Cataula, Georgia
Current Conditions -  °F | °C
As of 12:51 PM on Thursday 18 Dec 2014 (Local Time) from KCSG Reporting Station
Scattered Clouds Scattered Clouds  
Wind Chill: 14°   Ceiling: Unl
Heat Index: 14°   Visibility: 10mi
Dew Point: -1°   Wind: 6mph
Humidity: 36%   Direction: 250°WSW
Pressure: 30.14"   Gusts: NA
Location:  32.66°N, 84.87°W
Report Text: KCSG 181751Z 25005KT 10SM SCT110 14/M01 A3014 RMK AO2 SLP205 T01441006 10144 20039 58025
Loading
Personal Weather Stations






























Interactive Weather Map New forecast layout! Learn more

10-Day Weather Forecast

Advertisements
Track Severe Weather on mobile